sensor_id;sensor_type;location;lat;lon;timestamp;pressure;altitude;pressure_sealevel;temperature;humidity
75420;BME280;63998;52.488;13.428;2022-11-27T00:01:09;102453.22;;;7.88;83.41
75420;BME280;63998;52.488;13.428;2022-11-27T00:03:35;102453.34;;;7.91;83.20
75420;BME280;63998;52.488;13.428;2022-11-27T00:06:02;102453.84;;;7.82;82.94
75420;BME280;63998;52.488;13.428;2022-11-27T00:08:30;102457.56;;;7.89;83.33
75420;BME280;63998;52.488;13.428;2022-11-27T00:10:55;102459.91;;;7.83;83.28
75420;BME280;63998;52.488;13.428;2022-11-27T00:13:21;102450.28;;;7.79;83.11
75420;BME280;63998;52.488;13.428;2022-11-27T00:15:48;102454.84;;;7.86;83.28
75420;BME280;63998;52.488;13.428;2022-11-27T00:18:14;102449.69;;;7.86;82.88
75420;BME280;63998;52.488;13.428;2022-11-27T00:20:39;102446.41;;;7.90;83.24
75420;BME280;63998;52.488;13.428;2022-11-27T00:23:04;102449.09;;;7.93;82.97
75420;BME280;63998;52.488;13.428;2022-11-27T00:25:32;102439.47;;;7.89;82.72
75420;BME280;63998;52.488;13.428;2022-11-27T00:28:01;102442.88;;;7.88;82.88
75420;BME280;63998;52.488;13.428;2022-11-27T00:30:26;102441.34;;;7.93;82.66
75420;BME280;63998;52.488;13.428;2022-11-27T00:32:51;102447.09;;;7.86;82.64
75420;BME280;63998;52.488;13.428;2022-11-27T00:35:19;102444.38;;;7.83;82.78
75420;BME280;63998;52.488;13.428;2022-11-27T00:37:46;102443.00;;;7.70;83.12
75420;BME280;63998;52.488;13.428;2022-11-27T00:40:12;102449.06;;;7.71;83.43
75420;BME280;63998;52.488;13.428;2022-11-27T00:42:40;102450.69;;;7.69;83.63
75420;BME280;63998;52.488;13.428;2022-11-27T00:45:06;102450.59;;;7.66;83.73
75420;BME280;63998;52.488;13.428;2022-11-27T00:47:31;102460.94;;;7.66;83.51
75420;BME280;63998;52.488;13.428;2022-11-27T00:49:59;102460.78;;;7.63;83.43
75420;BME280;63998;52.488;13.428;2022-11-27T00:52:24;102450.59;;;7.66;83.33
75420;BME280;63998;52.488;13.428;2022-11-27T00:54:52;102445.66;;;7.72;83.51
75420;BME280;63998;52.488;13.428;2022-11-27T00:57:17;102440.41;;;7.70;83.29
75420;BME280;63998;52.488;13.428;2022-11-27T00:59:42;102429.91;;;7.66;83.65
75420;BME280;63998;52.488;13.428;2022-11-27T01:02:10;102446.22;;;7.65;83.51
75420;BME280;63998;52.488;13.428;2022-11-27T01:04:38;102446.09;;;7.62;83.73
75420;BME280;63998;52.488;13.428;2022-11-27T01:07:03;102436.44;;;7.57;83.64
75420;BME280;63998;52.488;13.428;2022-11-27T01:09:28;102439.22;;;7.62;83.59
75420;BME280;63998;52.488;13.428;2022-11-27T01:11:53;102436.56;;;7.61;83.90
75420;BME280;63998;52.488;13.428;2022-11-27T01:14:19;102440.47;;;7.51;83.54
75420;BME280;63998;52.488;13.428;2022-11-27T01:16:45;102439.59;;;7.50;83.79
75420;BME280;63998;52.488;13.428;2022-11-27T01:19:11;102430.16;;;7.51;83.43
75420;BME280;63998;52.488;13.428;2022-11-27T01:21:37;102419.97;;;7.55;83.48
75420;BME280;63998;52.488;13.428;2022-11-27T01:24:03;102411.59;;;7.61;83.53
75420;BME280;63998;52.488;13.428;2022-11-27T01:26:29;102412.84;;;7.71;83.20
75420;BME280;63998;52.488;13.428;2022-11-27T01:28:55;102421.41;;;7.70;82.80
75420;BME280;63998;52.488;13.428;2022-11-27T01:31:24;102421.56;;;7.73;82.74
75420;BME280;63998;52.488;13.428;2022-11-27T01:33:55;102420.81;;;7.75;82.82
75420;BME280;63998;52.488;13.428;2022-11-27T01:36:24;102415.69;;;7.77;82.09
75420;BME280;63998;52.488;13.428;2022-11-27T01:38:49;102414.16;;;7.82;81.96
75420;BME280;63998;52.488;13.428;2022-11-27T01:41:19;102420.28;;;7.84;82.04
75420;BME280;63998;52.488;13.428;2022-11-27T01:43:57;102406.78;;;7.91;81.62
75420;BME280;63998;52.488;13.428;2022-11-27T01:46:33;102410.19;;;7.90;81.58
75420;BME280;63998;52.488;13.428;2022-11-27T01:51:47;102392.50;;;8.01;81.14
75420;BME280;63998;52.488;13.428;2022-11-27T01:54:15;102383.13;;;8.04;81.12
75420;BME280;63998;52.488;13.428;2022-11-27T01:56:42;102381.38;;;8.03;81.07
75420;BME280;63998;52.488;13.428;2022-11-27T01:59:09;102381.59;;;8.09;80.88
75420;BME280;63998;52.488;13.428;2022-11-27T02:01:37;102379.63;;;8.02;80.58
75420;BME280;63998;52.488;13.428;2022-11-27T02:04:04;102374.31;;;7.99;80.16
75420;BME280;63998;52.488;13.428;2022-11-27T02:06:30;102374.44;;;8.02;80.42
75420;BME280;63998;52.488;13.428;2022-11-27T02:08:57;102372.91;;;8.07;80.70
75420;BME280;63998;52.488;13.428;2022-11-27T02:14:24;102365.94;;;8.06;80.38
75420;BME280;63998;52.488;13.428;2022-11-27T02:17:15;102369.34;;;8.05;80.48
75420;BME280;63998;52.488;13.428;2022-11-27T02:25:36;102367.19;;;7.93;80.47
75420;BME280;63998;52.488;13.428;2022-11-27T02:30:42;102365.72;;;8.00;80.52
75420;BME280;63998;52.488;13.428;2022-11-27T02:33:10;102364.91;;;8.01;80.48
75420;BME280;63998;52.488;13.428;2022-11-27T02:35:52;102379.50;;;7.99;80.37
75420;BME280;63998;52.488;13.428;2022-11-27T02:38:26;102377.47;;;7.92;80.50
75420;BME280;63998;52.488;13.428;2022-11-27T02:43:33;102365.59;;;7.75;80.76
75420;BME280;63998;52.488;13.428;2022-11-27T02:46:04;102370.44;;;7.67;80.92
75420;BME280;63998;52.488;13.428;2022-11-27T02:48:37;102372.00;;;7.62;81.35
75420;BME280;63998;52.488;13.428;2022-11-27T02:51:07;102369.19;;;7.57;82.01
75420;BME280;63998;52.488;13.428;2022-11-27T02:53:41;102373.50;;;7.57;81.96
75420;BME280;63998;52.488;13.428;2022-11-27T02:56:13;102370.75;;;7.52;82.26
75420;BME280;63998;52.488;13.428;2022-11-27T02:58:42;102374.16;;;7.51;82.52
75420;BME280;63998;52.488;13.428;2022-11-27T03:01:10;102370.34;;;7.43;82.22
75420;BME280;63998;52.488;13.428;2022-11-27T03:03:44;102370.84;;;7.35;83.16
75420;BME280;63998;52.488;13.428;2022-11-27T03:06:17;102366.88;;;7.22;83.16
75420;BME280;63998;52.488;13.428;2022-11-27T03:11:36;102365.56;;;7.11;84.05
75420;BME280;63998;52.488;13.428;2022-11-27T03:14:06;102363.25;;;7.17;83.76
75420;BME280;63998;52.488;13.428;2022-11-27T03:16:38;102357.22;;;7.18;83.76
75420;BME280;63998;52.488;13.428;2022-11-27T03:21:49;102355.59;;;7.20;83.42
75420;BME280;63998;52.488;13.428;2022-11-27T03:24:16;102358.00;;;7.15;83.51
75420;BME280;63998;52.488;13.428;2022-11-27T03:26:42;102358.75;;;7.13;83.00
75420;BME280;63998;52.488;13.428;2022-11-27T03:29:58;102356.63;;;7.03;82.66
75420;BME280;63998;52.488;13.428;2022-11-27T03:32:06;102364.22;;;7.00;83.12
75420;BME280;63998;52.488;13.428;2022-11-27T03:34:32;102364.38;;;7.03;82.60
75420;BME280;63998;52.488;13.428;2022-11-27T03:37:00;102354.94;;;7.05;82.64
75420;BME280;63998;52.488;13.428;2022-11-27T03:39:26;102365.19;;;7.02;82.16
75420;BME280;63998;52.488;13.428;2022-11-27T03:42:27;102368.44;;;6.98;82.26
75420;BME280;63998;52.488;13.428;2022-11-27T03:47:51;102359.75;;;6.96;82.42
75420;BME280;63998;52.488;13.428;2022-11-27T03:50:27;102352.41;;;6.85;82.09
75420;BME280;63998;52.488;13.428;2022-11-27T03:53:16;102357.44;;;6.82;82.26
75420;BME280;63998;52.488;13.428;2022-11-27T03:55:52;102357.72;;;6.89;81.97
75420;BME280;63998;52.488;13.428;2022-11-27T03:58:29;102356.69;;;6.85;82.18
75420;BME280;63998;52.488;13.428;2022-11-27T04:00:58;102356.63;;;6.83;81.75
75420;BME280;63998;52.488;13.428;2022-11-27T04:03:30;102355.44;;;6.75;81.87
75420;BME280;63998;52.488;13.428;2022-11-27T04:05:55;102356.53;;;6.61;82.04
75420;BME280;63998;52.488;13.428;2022-11-27T04:08:21;102349.59;;;6.60;81.80
75420;BME280;63998;52.488;13.428;2022-11-27T04:10:47;102360.06;;;6.63;82.06
75420;BME280;63998;52.488;13.428;2022-11-27T04:13:13;102359.56;;;6.72;81.68
75420;BME280;63998;52.488;13.428;2022-11-27T04:15:39;102363.47;;;6.62;81.82
75420;BME280;63998;52.488;13.428;2022-11-27T04:18:04;102358.81;;;6.74;81.21
75420;BME280;63998;52.488;13.428;2022-11-27T04:20:30;102358.50;;;6.67;81.16
75420;BME280;63998;52.488;13.428;2022-11-27T04:23:00;102363.84;;;6.71;81.23
75420;BME280;63998;52.488;13.428;2022-11-27T04:25:26;102358.16;;;6.78;80.88
75420;BME280;63998;52.488;13.428;2022-11-27T04:27:54;102360.66;;;6.77;80.64
75420;BME280;63998;52.488;13.428;2022-11-27T04:30:21;102358.53;;;6.68;80.25
75420;BME280;63998;52.488;13.428;2022-11-27T04:32:49;102362.50;;;6.60;80.43
75420;BME280;63998;52.488;13.428;2022-11-27T04:35:14;102361.44;;;6.55;80.62
75420;BME280;63998;52.488;13.428;2022-11-27T04:37:42;102361.53;;;6.58;80.02
75420;BME280;63998;52.488;13.428;2022-11-27T04:40:08;102366.16;;;6.46;80.01
75420;BME280;63998;52.488;13.428;2022-11-27T04:42:33;102363.88;;;6.52;80.10
75420;BME280;63998;52.488;13.428;2022-11-27T04:45:01;102359.44;;;6.49;79.96
75420;BME280;63998;52.488;13.428;2022-11-27T04:47:26;102363.84;;;6.33;80.29
75420;BME280;63998;52.488;13.428;2022-11-27T04:49:51;102368.75;;;6.27;80.57
75420;BME280;63998;52.488;13.428;2022-11-27T04:52:17;102363.28;;;6.21;80.36
75420;BME280;63998;52.488;13.428;2022-11-27T04:54:42;102369.50;;;6.06;80.08
75420;BME280;63998;52.488;13.428;2022-11-27T04:57:10;102357.31;;;6.02;80.82
75420;BME280;63998;52.488;13.428;2022-11-27T04:59:35;102368.44;;;6.01;80.68
75420;BME280;63998;52.488;13.428;2022-11-27T05:02:02;102368.78;;;6.09;80.18
75420;BME280;63998;52.488;13.428;2022-11-27T05:04:27;102359.19;;;6.06;80.13
75420;BME280;63998;52.488;13.428;2022-11-27T05:06:55;102362.88;;;6.11;80.80
75420;BME280;63998;52.488;13.428;2022-11-27T05:09:20;102361.09;;;6.10;80.54
75420;BME280;63998;52.488;13.428;2022-11-27T05:11:46;102358.53;;;6.10;79.50
75420;BME280;63998;52.488;13.428;2022-11-27T05:14:12;102354.03;;;6.06;79.85
75420;BME280;63998;52.488;13.428;2022-11-27T05:16:42;102358.31;;;6.06;79.18
75420;BME280;63998;52.488;13.428;2022-11-27T05:19:11;102359.34;;;6.09;79.53
75420;BME280;63998;52.488;13.428;2022-11-27T05:21:36;102360.53;;;6.16;79.27
75420;BME280;63998;52.488;13.428;2022-11-27T05:24:02;102356.09;;;6.13;79.03
75420;BME280;63998;52.488;13.428;2022-11-27T05:26:28;102359.34;;;6.09;79.31
75420;BME280;63998;52.488;13.428;2022-11-27T05:28:53;102363.94;;;5.97;79.39
75420;BME280;63998;52.488;13.428;2022-11-27T05:31:21;102368.06;;;5.94;78.97
75420;BME280;63998;52.488;13.428;2022-11-27T05:33:46;102365.63;;;5.79;79.44
75420;BME280;63998;52.488;13.428;2022-11-27T05:36:12;102363.03;;;5.79;79.30
75420;BME280;63998;52.488;13.428;2022-11-27T05:38:38;102357.66;;;5.57;79.42
75420;BME280;63998;52.488;13.428;2022-11-27T05:41:04;102362.16;;;5.43;79.66
75420;BME280;63998;52.488;13.428;2022-11-27T05:43:29;102357.91;;;5.44;80.69
75420;BME280;63998;52.488;13.428;2022-11-27T05:45:55;102369.94;;;5.27;80.23
75420;BME280;63998;52.488;13.428;2022-11-27T05:48:20;102360.22;;;5.21;80.53
75420;BME280;63998;52.488;13.428;2022-11-27T05:50:48;102356.81;;;5.22;81.21
75420;BME280;63998;52.488;13.428;2022-11-27T05:53:15;102359.13;;;5.16;80.48
75420;BME280;63998;52.488;13.428;2022-11-27T05:55:43;102361.84;;;5.19;81.16
75420;BME280;63998;52.488;13.428;2022-11-27T05:58:11;102362.69;;;5.20;81.40
75420;BME280;63998;52.488;13.428;2022-11-27T06:00:36;102359.03;;;5.15;80.72
75420;BME280;63998;52.488;13.428;2022-11-27T06:03:01;102352.63;;;5.24;81.29
75420;BME280;63998;52.488;13.428;2022-11-27T06:05:26;102335.06;;;5.33;81.49
75420;BME280;63998;52.488;13.428;2022-11-27T06:07:52;102342.56;;;5.29;80.72
75420;BME280;63998;52.488;13.428;2022-11-27T06:10:19;102340.66;;;5.25;80.89
75420;BME280;63998;52.488;13.428;2022-11-27T06:12:45;102334.94;;;5.30;80.21
75420;BME280;63998;52.488;13.428;2022-11-27T06:15:15;102325.50;;;5.31;80.31
75420;BME280;63998;52.488;13.428;2022-11-27T06:17:40;102326.97;;;5.26;80.28
75420;BME280;63998;52.488;13.428;2022-11-27T06:20:06;102326.59;;;5.18;79.57
75420;BME280;63998;52.488;13.428;2022-11-27T06:22:31;102320.31;;;5.13;79.89
75420;BME280;63998;52.488;13.428;2022-11-27T06:24:57;102322.38;;;5.20;80.12
75420;BME280;63998;52.488;13.428;2022-11-27T06:27:24;102316.56;;;5.24;79.83
75420;BME280;63998;52.488;13.428;2022-11-27T06:29:50;102314.16;;;5.27;80.03
75420;BME280;63998;52.488;13.428;2022-11-27T06:32:18;102314.16;;;5.27;79.72
75420;BME280;63998;52.488;13.428;2022-11-27T06:34:43;102322.31;;;5.36;79.57
75420;BME280;63998;52.488;13.428;2022-11-27T06:37:08;102325.34;;;5.46;80.17
75420;BME280;63998;52.488;13.428;2022-11-27T06:39:36;102329.03;;;5.51;80.01
75420;BME280;63998;52.488;13.428;2022-11-27T06:42:01;102321.94;;;5.47;79.47
75420;BME280;63998;52.488;13.428;2022-11-27T06:44:27;102325.50;;;5.49;79.16
75420;BME280;63998;52.488;13.428;2022-11-27T06:46:52;102332.25;;;5.47;79.74
75420;BME280;63998;52.488;13.428;2022-11-27T06:49:17;102329.03;;;5.51;79.81
75420;BME280;63998;52.488;13.428;2022-11-27T06:51:48;102331.97;;;5.40;79.77
75420;BME280;63998;52.488;13.428;2022-11-27T06:54:13;102327.53;;;5.20;78.84
75420;BME280;63998;52.488;13.428;2022-11-27T06:56:38;102333.19;;;5.13;79.52
75420;BME280;63998;52.488;13.428;2022-11-27T06:59:04;102335.63;;;5.10;79.21
75420;BME280;63998;52.488;13.428;2022-11-27T07:01:30;102330.63;;;5.13;80.15
75420;BME280;63998;52.488;13.428;2022-11-27T07:03:56;102339.16;;;5.12;79.63
75420;BME280;63998;52.488;13.428;2022-11-27T07:06:24;102326.63;;;5.02;79.52
75420;BME280;63998;52.488;13.428;2022-11-27T07:08:49;102334.28;;;5.00;80.44
75420;BME280;63998;52.488;13.428;2022-11-27T07:11:20;102331.53;;;4.97;80.44
75420;BME280;63998;52.488;13.428;2022-11-27T07:13:47;102335.88;;;4.98;80.17
75420;BME280;63998;52.488;13.428;2022-11-27T07:16:13;102326.94;;;5.08;79.72
75420;BME280;63998;52.488;13.428;2022-11-27T07:18:43;102317.94;;;5.00;80.28
75420;BME280;63998;52.488;13.428;2022-11-27T07:21:09;102303.94;;;4.95;79.62
75420;BME280;63998;52.488;13.428;2022-11-27T07:23:35;102304.09;;;4.98;79.95
75420;BME280;63998;52.488;13.428;2022-11-27T07:26:13;102302.81;;;5.06;79.91
75420;BME280;63998;52.488;13.428;2022-11-27T07:28:42;102304.44;;;5.04;79.37
75420;BME280;63998;52.488;13.428;2022-11-27T07:31:11;102316.34;;;5.02;79.31
75420;BME280;63998;52.488;13.428;2022-11-27T07:33:37;102307.81;;;5.03;79.23
75420;BME280;63998;52.488;13.428;2022-11-27T07:36:09;102307.03;;;4.88;79.79
75420;BME280;63998;52.488;13.428;2022-11-27T07:38:35;102313.50;;;4.80;79.73
75420;BME280;63998;52.488;13.428;2022-11-27T07:41:01;102311.31;;;4.71;80.11
75420;BME280;63998;52.488;13.428;2022-11-27T07:43:28;102309.34;;;4.65;80.30
75420;BME280;63998;52.488;13.428;2022-11-27T07:45:55;102309.25;;;4.64;79.55
75420;BME280;63998;52.488;13.428;2022-11-27T07:48:22;102302.41;;;4.64;80.45
75420;BME280;63998;52.488;13.428;2022-11-27T07:50:47;102296.56;;;4.67;80.59
75420;BME280;63998;52.488;13.428;2022-11-27T07:53:12;102296.13;;;4.76;80.07
75420;BME280;63998;52.488;13.428;2022-11-27T07:55:38;102297.72;;;4.74;79.76
75420;BME280;63998;52.488;13.428;2022-11-27T07:58:07;102294.88;;;4.67;80.06
75420;BME280;63998;52.488;13.428;2022-11-27T08:00:33;102293.25;;;4.69;79.86
75420;BME280;63998;52.488;13.428;2022-11-27T08:02:59;102294.69;;;4.81;80.20
75420;BME280;63998;52.488;13.428;2022-11-27T08:05:27;102294.69;;;4.81;80.11
75420;BME280;63998;52.488;13.428;2022-11-27T08:07:53;102300.28;;;4.90;80.37
75420;BME280;63998;52.488;13.428;2022-11-27T08:10:18;102291.91;;;4.94;79.81
75420;BME280;63998;52.488;13.428;2022-11-27T08:12:44;102291.91;;;4.94;80.16
75420;BME280;63998;52.488;13.428;2022-11-27T08:15:09;102293.19;;;4.86;79.55
75420;BME280;63998;52.488;13.428;2022-11-27T08:17:35;102287.88;;;4.83;79.57
75420;BME280;63998;52.488;13.428;2022-11-27T08:20:03;102283.06;;;4.89;79.92
75420;BME280;63998;52.488;13.428;2022-11-27T08:22:31;102279.09;;;4.95;79.45
75420;BME280;63998;52.488;13.428;2022-11-27T08:24:59;102286.16;;;4.99;80.45
75420;BME280;63998;52.488;13.428;2022-11-27T08:27:24;102282.22;;;5.06;79.90
75420;BME280;63998;52.488;13.428;2022-11-27T08:29:49;102281.63;;;4.94;79.30
75420;BME280;63998;52.488;13.428;2022-11-27T08:32:15;102279.09;;;4.95;79.30
75420;BME280;63998;52.488;13.428;2022-11-27T08:34:42;102285.44;;;5.02;79.31
75420;BME280;63998;52.488;13.428;2022-11-27T08:37:12;102284.91;;;5.09;79.32
75420;BME280;63998;52.488;13.428;2022-11-27T08:39:37;102285.88;;;5.11;79.31
75420;BME280;63998;52.488;13.428;2022-11-27T08:42:03;102290.22;;;5.12;79.00
75420;BME280;63998;52.488;13.428;2022-11-27T08:44:28;102281.38;;;5.07;79.01
75420;BME280;63998;52.488;13.428;2022-11-27T08:46:58;102281.25;;;5.04;79.15
75420;BME280;63998;52.488;13.428;2022-11-27T08:49:24;102273.66;;;5.07;79.00
75420;BME280;63998;52.488;13.428;2022-11-27T08:51:49;102278.97;;;5.10;78.69
75420;BME280;63998;52.488;13.428;2022-11-27T08:54:17;102288.41;;;5.27;79.21
75420;BME280;63998;52.488;13.428;2022-11-27T08:56:45;102292.22;;;5.35;78.44
75420;BME280;63998;52.488;13.428;2022-11-27T08:59:10;102295.75;;;5.37;78.36
75420;BME280;63998;52.488;13.428;2022-11-27T09:01:38;102282.34;;;5.45;78.37
75420;BME280;63998;52.488;13.428;2022-11-27T09:04:06;102285.28;;;5.34;77.16
75420;BME280;63998;52.488;13.428;2022-11-27T09:06:39;102275.44;;;5.44;77.19
75420;BME280;63998;52.488;13.428;2022-11-27T09:09:07;102297.53;;;5.38;77.54
75420;BME280;63998;52.488;13.428;2022-11-27T09:11:36;102284.00;;;5.43;76.71
75420;BME280;63998;52.488;13.428;2022-11-27T09:14:02;102287.22;;;5.38;77.00
75420;BME280;63998;52.488;13.428;2022-11-27T09:16:31;102283.69;;;5.36;76.97
75420;BME280;63998;52.488;13.428;2022-11-27T09:18:56;102288.69;;;5.33;76.94
75420;BME280;63998;52.488;13.428;2022-11-27T09:21:24;102280.59;;;5.44;76.45
75420;BME280;63998;52.488;13.428;2022-11-27T09:23:55;102275.66;;;5.48;76.79
75420;BME280;63998;52.488;13.428;2022-11-27T09:26:23;102268.94;;;5.52;76.08
75420;BME280;63998;52.488;13.428;2022-11-27T09:28:51;102269.59;;;5.65;76.95
75420;BME280;63998;52.488;13.428;2022-11-27T09:31:17;102266.28;;;5.68;76.58
75420;BME280;63998;52.488;13.428;2022-11-27T09:33:42;102263.41;;;5.81;76.91
75420;BME280;63998;52.488;13.428;2022-11-27T09:36:10;102253.41;;;5.87;75.79
75420;BME280;63998;52.488;13.428;2022-11-27T09:38:36;102259.88;;;5.97;75.38
75420;BME280;63998;52.488;13.428;2022-11-27T09:41:31;102257.22;;;5.95;74.97
75420;BME280;63998;52.488;13.428;2022-11-27T09:44:10;102254.22;;;6.04;74.75
75420;BME280;63998;52.488;13.428;2022-11-27T09:46:40;102255.06;;;6.24;75.30
75420;BME280;63998;52.488;13.428;2022-11-27T09:49:17;102256.16;;;6.09;74.30
75420;BME280;63998;52.488;13.428;2022-11-27T09:51:52;102247.91;;;6.17;74.61
75420;BME280;63998;52.488;13.428;2022-11-27T09:54:39;102237.81;;;6.23;75.25
75420;BME280;63998;52.488;13.428;2022-11-27T09:57:09;102237.56;;;6.17;74.19
75420;BME280;63998;52.488;13.428;2022-11-27T09:59:48;102234.44;;;6.24;75.08
75420;BME280;63998;52.488;13.428;2022-11-27T10:02:25;102231.44;;;6.34;74.44
75420;BME280;63998;52.488;13.428;2022-11-27T10:04:52;102236.13;;;6.42;74.29
75420;BME280;63998;52.488;13.428;2022-11-27T10:15:46;102235.75;;;6.54;74.19
75420;BME280;63998;52.488;13.428;2022-11-27T10:18:33;102241.16;;;6.60;73.61
75420;BME280;63998;52.488;13.428;2022-11-27T10:26:30;102226.19;;;6.72;73.54
75420;BME280;63998;52.488;13.428;2022-11-27T10:29:12;102224.91;;;6.83;73.54
75420;BME280;63998;52.488;13.428;2022-11-27T10:31:52;102225.28;;;6.93;73.54
75420;BME280;63998;52.488;13.428;2022-11-27T10:36:48;102218.63;;;6.98;72.74
75420;BME280;63998;52.488;13.428;2022-11-27T10:39:35;102218.88;;;7.04;72.77
75420;BME280;63998;52.488;13.428;2022-11-27T10:42:12;102219.00;;;6.86;72.10
75420;BME280;63998;52.488;13.428;2022-11-27T10:44:47;102215.91;;;6.95;71.92
75420;BME280;63998;52.488;13.428;2022-11-27T10:47:17;102209.03;;;6.95;72.06
75420;BME280;63998;52.488;13.428;2022-11-27T10:49:47;102203.59;;;7.10;72.25
75420;BME280;63998;52.488;13.428;2022-11-27T10:52:16;102209.91;;;7.16;71.77
75420;BME280;63998;52.488;13.428;2022-11-27T10:54:42;102204.84;;;7.19;71.12
75420;BME280;63998;52.488;13.428;2022-11-27T10:57:20;102202.31;;;7.21;70.98
75420;BME280;63998;52.488;13.428;2022-11-27T11:00:09;102193.28;;;7.10;70.68
75420;BME280;63998;52.488;13.428;2022-11-27T11:02:37;102201.31;;;7.17;70.66
75420;BME280;63998;52.488;13.428;2022-11-27T11:05:22;102200.09;;;7.30;70.90
75420;BME280;63998;52.488;13.428;2022-11-27T11:08:15;102198.09;;;7.45;70.58
75420;BME280;63998;52.488;13.428;2022-11-27T11:10:59;102195.38;;;7.65;70.69
75420;BME280;63998;52.488;13.428;2022-11-27T11:13:30;102182.91;;;7.77;69.63
75420;BME280;63998;52.488;13.428;2022-11-27T11:16:14;102177.44;;;7.93;69.21
75420;BME280;63998;52.488;13.428;2022-11-27T11:21:15;102193.41;;;8.05;68.21
75420;BME280;63998;52.488;13.428;2022-11-27T11:23:41;102201.66;;;7.95;68.18
75420;BME280;63998;52.488;13.428;2022-11-27T11:26:24;102198.25;;;7.72;68.60
75420;BME280;63998;52.488;13.428;2022-11-27T11:28:53;102194.31;;;7.60;69.27
75420;BME280;63998;52.488;13.428;2022-11-27T11:31:44;102188.53;;;7.67;69.61
75420;BME280;63998;52.488;13.428;2022-11-27T11:37:25;102179.56;;;8.03;69.15
75420;BME280;63998;52.488;13.428;2022-11-27T11:39:55;102173.53;;;8.29;68.83
75420;BME280;63998;52.488;13.428;2022-11-27T11:42:23;102172.56;;;8.50;67.75
75420;BME280;63998;52.488;13.428;2022-11-27T11:45:00;102173.47;;;8.77;67.17
75420;BME280;63998;52.488;13.428;2022-11-27T11:47:27;102169.47;;;8.87;66.05
75420;BME280;63998;52.488;13.428;2022-11-27T11:49:53;102172.88;;;9.13;65.97
75420;BME280;63998;52.488;13.428;2022-11-27T11:55:30;102170.41;;;9.76;63.81
75420;BME280;63998;52.488;13.428;2022-11-27T12:00:47;102172.75;;;10.29;62.68
75420;BME280;63998;52.488;13.428;2022-11-27T12:03:26;102154.91;;;10.10;61.27
75420;BME280;63998;52.488;13.428;2022-11-27T12:24:51;102124.63;;;10.43;59.80
75420;BME280;63998;52.488;13.428;2022-11-27T12:27:44;102116.50;;;10.30;61.29
75420;BME280;63998;52.488;13.428;2022-11-27T12:30:17;102104.81;;;10.14;62.20
75420;BME280;63998;52.488;13.428;2022-11-27T12:43:29;102090.34;;;9.91;62.43
75420;BME280;63998;52.488;13.428;2022-11-27T12:46:09;102084.66;;;10.04;61.76
75420;BME280;63998;52.488;13.428;2022-11-27T12:48:46;102077.69;;;10.03;61.18
75420;BME280;63998;52.488;13.428;2022-11-27T12:51:20;102075.94;;;10.71;60.90
75420;BME280;63998;52.488;13.428;2022-11-27T12:53:54;102074.53;;;10.48;60.80
75420;BME280;63998;52.488;13.428;2022-11-27T12:59:23;102059.16;;;11.38;58.15
75420;BME280;63998;52.488;13.428;2022-11-27T13:02:09;102056.84;;;11.97;56.65
75420;BME280;63998;52.488;13.428;2022-11-27T13:04:50;102057.13;;;12.15;55.64
75420;BME280;63998;52.488;13.428;2022-11-27T13:07:22;102061.63;;;12.22;54.93
75420;BME280;63998;52.488;13.428;2022-11-27T13:10:09;102063.56;;;12.94;53.99
75420;BME280;63998;52.488;13.428;2022-11-27T13:12:43;102051.75;;;13.20;52.28
75420;BME280;63998;52.488;13.428;2022-11-27T13:17:44;102037.56;;;13.77;51.52
75420;BME280;63998;52.488;13.428;2022-11-27T13:20:17;102036.94;;;14.02;50.63
75420;BME280;63998;52.488;13.428;2022-11-27T13:22:46;102033.31;;;13.88;50.56
75420;BME280;63998;52.488;13.428;2022-11-27T13:25:13;102031.84;;;14.18;50.20
75420;BME280;63998;52.488;13.428;2022-11-27T13:27:47;102023.19;;;14.26;49.45
75420;BME280;63998;52.488;13.428;2022-11-27T13:30:22;102023.09;;;14.14;49.55
75420;BME280;63998;52.488;13.428;2022-11-27T13:32:53;102014.78;;;13.62;50.43
75420;BME280;63998;52.488;13.428;2022-11-27T13:35:39;102010.66;;;13.06;51.63
75420;BME280;63998;52.488;13.428;2022-11-27T13:38:12;102012.84;;;12.74;52.65
75420;BME280;63998;52.488;13.428;2022-11-27T13:40:43;102018.63;;;12.51;53.86
75420;BME280;63998;52.488;13.428;2022-11-27T13:43:27;102013.63;;;12.08;54.38
75420;BME280;63998;52.488;13.428;2022-11-27T13:46:21;102014.34;;;12.01;55.47
75420;BME280;63998;52.488;13.428;2022-11-27T13:49:00;102006.31;;;11.85;55.77
75420;BME280;63998;52.488;13.428;2022-11-27T13:51:36;101992.28;;;11.77;56.20
75420;BME280;63998;52.488;13.428;2022-11-27T13:54:11;101993.97;;;11.75;55.50
75420;BME280;63998;52.488;13.428;2022-11-27T13:56:40;101992.28;;;11.77;55.65
75420;BME280;63998;52.488;13.428;2022-11-27T13:59:23;101985.69;;;11.51;56.23
75420;BME280;63998;52.488;13.428;2022-11-27T14:02:05;101989.56;;;11.26;57.32
75420;BME280;63998;52.488;13.428;2022-11-27T14:04:32;101987.25;;;10.96;57.97
75420;BME280;63998;52.488;13.428;2022-11-27T14:07:07;101991.78;;;10.66;58.40
75420;BME280;63998;52.488;13.428;2022-11-27T14:09:51;101989.72;;;10.50;58.47
75420;BME280;63998;52.488;13.428;2022-11-27T14:12:27;101987.69;;;10.36;59.60
75420;BME280;63998;52.488;13.428;2022-11-27T14:15:04;101982.78;;;10.14;60.31
75420;BME280;63998;52.488;13.428;2022-11-27T14:17:36;101981.53;;;9.97;60.63
75420;BME280;63998;52.488;13.428;2022-11-27T14:20:21;101981.66;;;10.03;61.50
75420;BME280;63998;52.488;13.428;2022-11-27T14:22:52;101983.41;;;10.04;61.05
75420;BME280;63998;52.488;13.428;2022-11-27T14:27:56;101986.31;;;10.54;59.97
75420;BME280;63998;52.488;13.428;2022-11-27T14:30:32;101980.41;;;10.59;60.10
75420;BME280;63998;52.488;13.428;2022-11-27T14:33:00;101982.53;;;10.39;60.87